This is the latest recevied weather packets stored in our database for station/object DH0DM-13. If no packets are shown the sender has not sent any weather packets the latest 10 day(s).
| Time | Temp. | Humidity | Pressure | Rain* | Wind** | Luminosity | Snow |
|---|---|---|---|---|---|---|---|
| 1777835391 | 17.22° C | 55% | 985 hPa | 0 mm | 0 m/s | - | - |
| 1777834790 | 17.78° C | 51% | 985 hPa | 0 mm | 0 m/s | - | - |
| 1777834190 | 17.78° C | 50% | 985.1 hPa | 0 mm | 0 m/s | - | - |
| 1777833587 | 18.33° C | 51% | 985.1 hPa | 0 mm | 0 m/s | - | - |
| 1777832986 | 18.33° C | 50% | 984.8 hPa | 0 mm | 0 m/s | - | - |
| 1777832385 | 18.89° C | 50% | 984.8 hPa | 0 mm | 0 m/s | - | - |
| 1777831784 | 19.44° C | 49% | 984.8 hPa | 0 mm | 0 m/s | - | - |
| 1777831183 | 20° C | 49% | 985 hPa | 0 mm | 0 m/s | - | - |
| 1777830582 | 21.11° C | 46% | 985 hPa | 0 mm | 0 m/s | - | - |
| 1777829981 | 22.22° C | 43% | 985 hPa | 0 mm | 0 m/s | - | - |
| 1777829380 | 22.78° C | 41% | 984.9 hPa | 0 mm | 0 m/s | - | - |
| 1777828779 | 23.89° C | 33% | 984.8 hPa | 0 mm | 0 m/s | - | - |
| 1777828179 | 24.44° C | 32% | 985.1 hPa | 0 mm | 0 m/s | - | - |
| 1777827578 | 25° C | 29% | 985 hPa | 0 mm | 0 m/s | - | - |
| 1777826977 | 25° C | 28% | 985.1 hPa | 0 mm | 0.89 m/s, 137° | - | - |
| 1777826376 | 25.56° C | 27% | 985 hPa | 0 mm | 1.79 m/s, 204° | - | - |
| 1777825775 | 26.67° C | 25% | 985.1 hPa | 0 mm | 2.68 m/s, 207° | - | - |
| 1777825174 | 26.67° C | 25% | 985.1 hPa | 0 mm | 0.45 m/s, 214° | - | - |
| 1777824573 | 27.22° C | 24% | 985.1 hPa | 0 mm | 0.89 m/s, 105° | - | - |
| 1777823972 | 26.67° C | 23% | 985.3 hPa | 0 mm | 6.26 m/s, 111° | - | - |
| 1777823371 | 27.22° C | 23% | 985.2 hPa | 0 mm | 6.26 m/s, 237° | - | - |
| 1777822771 | 27.78° C | 23% | 985.3 hPa | 0 mm | 2.68 m/s, 188° | - | - |
| 1777822170 | 27.22° C | 23% | 985.5 hPa | 0 mm | 2.24 m/s, 194° | - | - |
| 1777821569 | 27.22° C | 20% | 985.7 hPa | 0 mm | 0.89 m/s, 126° | - | - |
| 1777820968 | 27.78° C | 21% | 985.5 hPa | 0 mm | 2.68 m/s, 214° | - | - |
* Rain since midnight (hover to see other rain measurements)
** Current wind speed in m/s (hover to see current wind gust speed)